Flight Track Log - Related Links

Times and Time Zones

All times are in EDT time to prevent confusion due to time zone crossing. See the N12502 flight status page for this flight to view local times or setup timezone preferences in your user account.

Time Position Orientation Groundspeed Altitude Reporting Facility
EDT Latitude Longitude Course Direction KTS MPH feet Rate Location/Type
Mon 07:02:15 PM 40.1750 -88.6819 297° West 93 107 4,100  Level Chicago Center
Mon 07:03:17 PM 40.1981 -88.7036 324° Northwest 98 113 4,100  Level Chicago Center
Mon 07:04:19 PM 40.2206 -88.7242 325° Northwest 99 114 4,100 -48 Level Chicago Center
Mon 07:05:21 PM 40.2472 -88.7494 324° Northwest 99 114 4,000  Descending Chicago Center
Mon 07:06:00 PM 40.1170 -88.4752 297° West  Level FlightAware Approximate
Mon 07:06:23 PM 40.2622 -88.7817 301° West 102 117 4,100  Level Chicago Center
Mon 07:07:00 PM 40.1300 -88.5082 297° West  Level FlightAware Approximate
Mon 07:07:25 PM 40.2819 -88.8053 318° Northwest 98 113 4,100  Level Chicago Center
Mon 07:08:27 PM 40.3003 -88.8328 311° West 100 115 4,100  Level Chicago Center
Mon 07:09:29 PM 40.3172 -88.8611 308° West 99 114 4,100  Level Chicago Center
Mon 07:10:31 PM 40.3344 -88.8894 309° West 99 114 4,100  Level Chicago Center
Mon 07:11:33 PM 40.3542 -88.9244 306° West 99 114 4,100  Level Chicago Center
Mon 07:12:36 PM 40.3678 -88.9547 301° West 98 113 4,100  Level Chicago Center
Mon 07:13:38 PM 40.3808 -88.9872 298° West 100 115 4,100 48 Level Chicago Center
Mon 07:14:40 PM 40.3903 -89.0206 290° West 98 113 4,200  Climbing Chicago Center
Mon 07:15:42 PM 40.3994 -89.0544 290° West 99 114 4,100 -97 Descending Chicago Center
Mon 07:16:44 PM 40.4050 -89.0892 282° West 97 112 4,000  Descending Chicago Center
Mon 07:17:46 PM 40.4125 -89.1289 284° West 95 109 4,100 48 Climbing Chicago Center
Mon 07:18:48 PM 40.4203 -89.1619 287° West 94 108 4,100  Level Chicago Center
Mon 07:19:50 PM 40.4292 -89.1931 291° West 92 106 4,100  Level Chicago Center
Mon 07:20:52 PM 40.4383 -89.2253 291° West 94 108 4,100 48 Level Chicago Center
Mon 07:21:54 PM 40.4478 -89.2575 291° West 95 109 4,200  Climbing Chicago Center
Mon 07:22:56 PM 40.4575 -89.2919 290° West 98 113 4,100 -97 Descending Chicago Center
Mon 07:23:58 PM 40.4703 -89.3328 292° West 100 115 4,000  Descending Chicago Center
Mon 07:25:01 PM 40.4844 -89.3631 302° West 98 113 4,100 48 Climbing Chicago Center
Mon 07:26:03 PM 40.5003 -89.3919 306° West 98 113 4,100 -48 Level Chicago Center
Mon 07:27:05 PM 40.5164 -89.4236 304° West 100 115 4,000 -48 Descending Chicago Center
Mon 07:28:07 PM 40.5342 -89.4508 311° West 100 115 4,000 48 Level Chicago Center
Mon 07:29:09 PM 40.5489 -89.4814 302° West 99 114 4,100 48 Climbing Chicago Center
Mon 07:30:11 PM 40.5608 -89.5208 292° West 98 113 4,100  Level Chicago Center
Mon 07:31:13 PM 40.5725 -89.5550 294° West 100 115 4,100  Level Chicago Center
Mon 07:32:15 PM 40.5875 -89.5861 302° West 100 115 4,100  Level Chicago Center
Mon 07:33:17 PM 40.6047 -89.6150 308° West 99 114 4,100  Level Chicago Center
Mon 07:34:20 PM 40.6200 -89.6436 305° West 98 113 4,100  Level Chicago Center
Mon 07:35:22 PM 40.6339 -89.6750 300° West 97 112 4,100 -48 Level Chicago Center
Mon 07:36:24 PM 40.6453 -89.7144 291° West 96 110 4,000 -48 Descending Chicago Center
Mon 07:37:26 PM 40.6550 -89.7475 291° West 96 110 4,000 48 Level Chicago Center
Mon 07:38:28 PM 40.6731 -89.7706 316° Northwest 91 105 4,100 48 Climbing Chicago Center
Mon 07:39:30 PM 40.6881 -89.7981 306° West 92 106 4,100 48 Level Chicago Center
Mon 07:40:32 PM 40.7103 -89.8239 319° Northwest 92 106 4,200  Climbing Chicago Center
Mon 07:41:34 PM 40.7297 -89.8486 316° Northwest 96 110 4,100 -48 Descending Chicago Center
Mon 07:42:36 PM 40.7481 -89.8750 313° West 97 112 4,100 -48 Level Chicago Center
Mon 07:43:38 PM 40.7661 -89.9003 313° West 96 110 4,000 -48 Descending Chicago Center
Mon 07:44:40 PM 40.7844 -89.9269 312° West 97 112 4,000 48 Level Chicago Center
Mon 07:45:42 PM 40.8039 -89.9503 318° Northwest 96 110 4,100 48 Climbing Chicago Center
Mon 07:46:45 PM 40.8267 -89.9781 317° Northwest 93 107 4,100  Level Chicago Center
Mon 07:47:47 PM 40.8456 -90.0014 317° Northwest 94 108 4,100 -48 Level Chicago Center
Mon 07:48:49 PM 40.8658 -90.0239 320° Northwest 94 108 4,000 -48 Descending Chicago Center
Mon 07:49:51 PM 40.8864 -90.0475 319° Northwest 96 110 4,000  Level Chicago Center
Mon 07:50:53 PM 40.9033 -90.0719 313° West 93 107 4,000 48 Level Chicago Center
Mon 07:51:55 PM 40.9197 -90.0978 310° West 91 105 4,100 97 Climbing Chicago Center
Mon 07:52:57 PM 40.9397 -90.1297 310° West 93 107 4,200 48 Climbing Chicago Center
Mon 07:53:59 PM 40.9600 -90.1536 318° Northwest 95 109 4,200 -48 Level Chicago Center
Mon 07:55:01 PM 40.9831 -90.1761 324° Northwest 99 114 4,100 -144 Descending Chicago Center
Mon 07:56:04 PM 41.0019 -90.2003 316° Northwest 98 113 3,900 -48 Descending Chicago Center
Mon 07:57:06 PM 41.0194 -90.2275 310° West 97 112 4,000 48 Climbing Chicago Center
Mon 07:58:08 PM 41.0342 -90.2558 305° West 95 109 4,000 48 Level Chicago Center
Mon 07:59:10 PM 41.0531 -90.2897 306° West 94 108 4,100  Climbing Chicago Center
Mon 08:00:12 PM 41.0708 -90.3158 312° West 95 109 4,000 -48 Descending Chicago Center
Mon 08:01:14 PM 41.0917 -90.3406 318° Northwest 97 112 4,000 97 Level Chicago Center
Mon 08:02:16 PM 41.1142 -90.3622 324° Northwest 99 114 4,200 97 Climbing Chicago Center
Mon 08:03:18 PM 41.1339 -90.3869 317° Northwest 99 114 4,200 -48 Level Chicago Center
Mon 08:04:20 PM 41.1550 -90.4131 317° Northwest 100 115 4,100 -48 Descending Chicago Center
Mon 08:05:22 PM 41.1783 -90.4456 314° West 101 116 4,100  Level Chicago Center
Mon 08:06:24 PM 41.1967 -90.4717 313° West 99 114 4,100  Level Chicago Center
Mon 08:07:27 PM 41.2144 -90.4961 314° West 96 110 4,100 48 Level Chicago Center
Mon 08:08:29 PM 41.2333 -90.5200 316° Northwest 94 108 4,200 48 Climbing Chicago Center
Mon 08:09:31 PM 41.2508 -90.5456 312° West 94 108 4,200  Level Chicago Center
Mon 08:10:33 PM 41.2678 -90.5722 310° West 94 108 4,200 -48 Level Chicago Center
Mon 08:11:35 PM 41.2886 -90.6033 312° West 94 108 4,100 -48 Descending Chicago Center
Mon 08:12:37 PM 41.3067 -90.6275 315° West 93 107 4,100  Level Chicago Center
Mon 08:13:39 PM 41.3264 -90.6508 318° Northwest 94 108 4,100  Level Chicago Center
Mon 08:15:00 PM 41.3556 -90.6863 318° Northwest  Level FlightAware Approximate
Mon 08:15:43 PM 41.3700 -90.6869 318° Northwest 92 106 4,100  Level Chicago Center
Mon 08:16:45 PM 41.3886 -90.7092 318° Northwest 91 105 4,100  Level Chicago Center
Mon 08:17:48 PM 41.4086 -90.7386 312° West 90 104 4,100 -48 Level Chicago Center
Mon 08:18:50 PM 41.4256 -90.7617 314° West 88 101 4,000  Descending Chicago Center
Mon 08:19:52 PM 41.4406 -90.7867 309° West 87 100 4,100 48 Climbing Chicago Center
Mon 08:20:54 PM 41.4583 -90.8067 320° Northwest 86 99 4,100 48 Level Chicago Center
Mon 08:21:56 PM 41.4761 -90.8253 322° Northwest 83 96 4,200 48 Climbing Chicago Center
Mon 08:22:58 PM 41.4975 -90.8511 318° Northwest 86 99 4,200  Level Chicago Center
Mon 08:24:00 PM 41.5161 -90.8733 318° Northwest 89 102 4,200 -48 Level Chicago Center
Mon 08:25:02 PM 41.5333 -90.8933 319° Northwest 90 104 4,100  Descending Chicago Center
Mon 08:26:04 PM 41.5533 -90.9250 310° West 93 107 4,200  Climbing Chicago Center
Mon 08:27:06 PM 41.5711 -90.9492 315° West 93 107 4,100 -96 Descending Chicago Center
Mon 08:28:09 PM 41.5903 -90.9728 317° Northwest 94 108 4,000 -48 Descending Chicago Center
Mon 08:29:11 PM 41.6100 -90.9953 320° Northwest 94 108 4,000  Level Chicago Center
Mon 08:30:13 PM 41.6278 -91.0203 314° West 94 108 4,000 48 Level Chicago Center
Mon 08:31:15 PM 41.6500 -91.0453 320° Northwest 89 102 4,100 97 Climbing Chicago Center
Mon 08:32:17 PM 41.6692 -91.0639 324° Northwest 87 100 4,200 48 Climbing Chicago Center
Mon 08:33:19 PM 41.6872 -91.0867 317° Northwest 88 101 4,200 -48 Level Chicago Center
Mon 08:34:21 PM 41.7075 -91.1061 324° Northwest 90 104 4,100 -48 Descending Chicago Center
Mon 08:35:23 PM 41.7275 -91.1267 323° Northwest 91 105 4,100 48 Level Chicago Center
Mon 08:36:25 PM 41.7486 -91.1517 319° Northwest 88 101 4,200 48 Climbing Chicago Center
Mon 08:37:27 PM 41.7683 -91.1753 318° Northwest 91 105 4,200 -242 Level Chicago Center
Mon 08:38:29 PM 41.7878 -91.1986 318° Northwest 93 107 3,700 -484 Descending Chicago Center
Mon 08:39:31 PM 41.8078 -91.2231 318° Northwest 97 112 3,200 -288 Descending Chicago Center
Mon 08:40:34 PM 41.8278 -91.2475 318° Northwest 85 98 3,100 -144 Descending Chicago Center
Mon 08:41:36 PM 41.8458 -91.2639 326° Northwest 81 93 2,900 -194 Descending Chicago Center
Mon 08:42:38 PM 41.8611 -91.2828 317° Northwest 78 90 2,700 -145 Descending Chicago Center
Mon 08:43:40 PM 41.8747 -91.3033 312° West 76 87 2,600 -48 Descending Chicago Center
Mon 08:44:42 PM 41.8881 -91.3261 308° West 76 87 2,600 -48 Level Chicago Center
Mon 08:45:44 PM 41.9003 -91.3558 299° West 76 87 2,500  Descending Chicago Center
Mon 08:46:46 PM 41.9133 -91.3783 308° West 76 87 2,600 48 Climbing Chicago Center
Mon 08:47:48 PM 41.9281 -91.3986 314° West 77 89 2,600 48 Level Chicago Center
Mon 08:48:50 PM 41.9444 -91.4150 323° Northwest 76 87 2,700 48 Climbing Chicago Center
Mon 08:49:52 PM 41.9581 -91.4353 312° West 74 85 2,700  Level Chicago Center
Mon 08:51:00 PM 41.9764 -91.4702 305° West  Level FlightAware Approximate
Mon 08:58:00 PM 42.0167 -91.5167 323° Northwest  Level FlightAware Approximate
Mon 08:59:00 PM 42.0298 -91.5316 323° Northwest  Level Estimated
Mon 09:00:00 PM 42.0298 -91.5316 323° Northwest  Level Estimated
Mon 09:01:00 PM 42.0298 -91.5316 323° Northwest  Level Estimated

Login

Don't have an account? Register now (free) for customized features, flight alerts, and more!